메인 페이지
METAR-TAF:

METAR-TAF

공항 :

아타튀르크 국제공항

이스탄불 이스탄불, 터키

위도: 40-58N, 경도: 028-49E, 고도: 48m

현재 날씨관측

예보는 37분 전, 23:20시(UTC)에 발표되었습니다.
북북동5kt
온도 24°C
습도 78%
기압 1017 hPa
시정 10km 이상
1500m 미만 상공 구름 및 적란운 없음

METAR: LTBA 202320Z 03005KT CAVOK 24/20 Q1017 NOSIG RMK RWY17L 04005KT 010V070 RWY05 05003KT RWY23 05004KT

시각: 02:57 (23:57 UTC)

예보

예보는 1 시간 17분 전, 22:40시(UTC)에 발표되었습니다.
예보 대상 시간: 21일 00시부터 22일 06시까지 (UTC)
북북동6kt
시정 10km 이상
1500m 미만 상공 구름 및 적란운 없음
전환 중
21일 03시부터 21일 07시까지 (UTC)
북북동16kt
고도 2000ft 상공 구름 많음
일시적
21일 09시부터 21일 13시까지 (UTC)
고도 2000ft 상공 구름 조금, 적란운.
고도 3000ft 상공 구름 많음
뇌우, 약한비
전환 중
21일 16시부터 21일 18시까지 (UTC)
북북동6kt
고도 4000ft 상공 구름 조금

TAF: LTBA 202240Z 2100/2206 02006KT CAVOK BECMG 2103/2107 02016KT BKN020 TEMPO 2109/2113 -TSRA FEW020CB BKN030 BECMG 2116/2118 02006KT FEW040

4,000개 이상의 공항 관측 자료 및 예보 (METAR 및 TAF 보고).

지도상에서 검색 가능한 기상관측소가 노란 점과 빨간 점으로 표시되어 있습니다.

기상관측소 명을 보려면 표시 위로 마우스를 이동하세요.

날씨 관측과 예보를 보려면 클릭하세요.

지도 변경 : 확대하려면 엑스 표시가 있는 녹색 버튼, 축소하려면 빼기 표시가 있는 녹색 버튼, 다음 페이지의 지도를 보려면 녹색 화살표를 클릭하세요.


METAR-TAF: